createdAt,value
2018-12-08T00:00:35.183Z,13.23
2018-12-08T00:03:03.703Z,22.07
2018-12-08T00:05:31.983Z,12.20
2018-12-08T00:08:00.238Z,14.80
2018-12-08T00:10:28.610Z,14.53
2018-12-08T00:12:56.980Z,17.60
2018-12-08T00:15:25.354Z,17.57
2018-12-08T00:17:54.896Z,8.03
2018-12-08T00:20:23.217Z,13.67
2018-12-08T00:22:51.616Z,7.50
2018-12-08T00:25:19.976Z,17.83
2018-12-08T00:27:48.537Z,11.07
2018-12-08T00:30:28.265Z,8.90
2018-12-08T00:32:56.513Z,8.97
2018-12-08T00:35:24.776Z,6.90
2018-12-08T00:37:53.015Z,9.93
2018-12-08T00:40:21.521Z,11.33
2018-12-08T00:42:49.764Z,11.87
2018-12-08T00:45:18.036Z,10.70
2018-12-08T00:47:46.433Z,8.53
2018-12-08T00:50:14.707Z,9.10
2018-12-08T00:52:43.195Z,10.73
2018-12-08T00:55:11.473Z,12.53
2018-12-08T00:57:39.821Z,5.50
2018-12-08T01:00:08.291Z,10.80
2018-12-08T01:02:36.565Z,8.93
2018-12-08T01:05:05.582Z,13.80
2018-12-08T01:07:33.874Z,10.47
2018-12-08T01:10:02.235Z,4.97
2018-12-08T01:12:30.523Z,10.70
2018-12-08T01:14:59.139Z,6.33
2018-12-08T01:17:27.544Z,6.03
2018-12-08T01:19:55.806Z,20.60
2018-12-08T01:22:24.104Z,11.07
2018-12-08T01:24:52.417Z,10.53
2018-12-08T01:27:20.702Z,6.33
2018-12-08T01:29:48.931Z,9.07
2018-12-08T01:32:17.162Z,8.90
2018-12-08T01:34:45.559Z,13.27
2018-12-08T01:37:13.828Z,11.00
2018-12-08T01:39:42.063Z,4.80
2018-12-08T01:42:10.309Z,11.80
2018-12-08T01:44:38.546Z,8.80
2018-12-08T01:47:06.830Z,9.53
2018-12-08T01:49:35.146Z,13.63
2018-12-08T01:52:03.387Z,6.30
2018-12-08T01:54:31.698Z,7.97
2018-12-08T01:56:59.940Z,4.43
2018-12-08T01:59:28.205Z,5.87
2018-12-08T02:01:56.506Z,7.63
2018-12-08T02:04:24.725Z,7.07
2018-12-08T02:06:52.985Z,6.33
2018-12-08T02:09:21.213Z,4.03
2018-12-08T02:11:49.468Z,6.33
2018-12-08T02:14:17.739Z,8.27
2018-12-08T02:16:46.022Z,7.90
2018-12-08T02:19:14.284Z,5.23
2018-12-08T02:21:42.533Z,6.10
2018-12-08T02:24:17.500Z,4.03
2018-12-08T02:26:45.748Z,9.33
2018-12-08T02:29:14.039Z,11.10
2018-12-08T02:31:42.471Z,6.97
2018-12-08T02:34:10.694Z,8.00
2018-12-08T02:36:38.958Z,4.83
2018-12-08T02:39:07.798Z,10.93
2018-12-08T02:41:36.160Z,10.67
2018-12-08T02:44:04.715Z,3.73
2018-12-08T02:46:32.972Z,3.00
2018-12-08T02:49:01.273Z,4.03
2018-12-08T02:51:29.656Z,3.77
2018-12-08T02:53:57.869Z,5.60
2018-12-08T02:56:26.070Z,6.13
2018-12-08T02:58:54.351Z,5.30
2018-12-08T03:01:22.590Z,3.20
2018-12-08T03:03:51.512Z,6.30
2018-12-08T03:06:20.508Z,6.73
2018-12-08T03:08:48.782Z,3.60
2018-12-08T03:11:17.025Z,9.60
2018-12-08T03:13:45.298Z,10.80
2018-12-08T03:16:13.558Z,5.67
2018-12-08T03:18:41.860Z,3.63
2018-12-08T03:21:10.119Z,4.20
2018-12-08T03:23:38.464Z,11.03
2018-12-08T03:26:06.680Z,3.27
2018-12-08T03:28:34.950Z,6.97
2018-12-08T03:31:03.188Z,10.73
2018-12-08T03:33:31.386Z,11.33
2018-12-08T03:35:59.623Z,8.00
2018-12-08T03:38:27.987Z,7.83
2018-12-08T03:40:56.301Z,6.23
2018-12-08T03:43:24.542Z,8.20
2018-12-08T03:45:52.786Z,5.83
2018-12-08T03:48:21.006Z,11.50
2018-12-08T03:50:49.296Z,9.87
2018-12-08T03:53:17.555Z,10.50
2018-12-08T03:55:45.821Z,8.40
2018-12-08T03:58:14.090Z,8.67
2018-12-08T04:00:42.362Z,11.43
2018-12-08T04:03:10.885Z,10.63
2018-12-08T04:05:39.146Z,10.47
2018-12-08T04:08:07.436Z,8.00
2018-12-08T04:10:35.668Z,8.97
2018-12-08T04:13:04.023Z,10.13
2018-12-08T04:15:32.379Z,7.37
2018-12-08T04:18:00.600Z,6.30
2018-12-08T04:20:28.931Z,8.47
2018-12-08T04:22:57.173Z,4.67
2018-12-08T04:25:25.416Z,5.40
2018-12-08T04:27:53.644Z,10.73
2018-12-08T04:30:21.953Z,5.43
2018-12-08T04:32:50.172Z,3.67
2018-12-08T04:35:18.435Z,7.30
2018-12-08T04:37:46.653Z,9.10
2018-12-08T04:40:15.103Z,6.13
2018-12-08T04:42:43.350Z,7.00
2018-12-08T04:45:11.594Z,2.87
2018-12-08T04:47:39.827Z,12.37
2018-12-08T04:50:08.210Z,5.23
2018-12-08T04:52:36.542Z,5.20
2018-12-08T04:55:05.240Z,4.17
2018-12-08T04:57:33.557Z,4.70
2018-12-08T05:00:01.811Z,4.27
2018-12-08T05:02:30.043Z,4.47
2018-12-08T05:04:58.268Z,4.73
2018-12-08T05:07:26.542Z,5.00
2018-12-08T05:09:54.878Z,7.20
2018-12-08T05:12:23.117Z,3.33
2018-12-08T05:14:51.374Z,3.07
2018-12-08T05:17:19.641Z,4.37
2018-12-08T05:19:47.852Z,2.67
2018-12-08T05:22:16.048Z,5.00
2018-12-08T05:24:44.292Z,6.73
2018-12-08T05:27:12.534Z,2.47
2018-12-08T05:29:40.740Z,4.83
2018-12-08T05:32:08.986Z,4.83
2018-12-08T05:34:37.229Z,6.43
2018-12-08T05:37:05.440Z,6.10
2018-12-08T05:39:33.649Z,4.13
2018-12-08T05:42:01.958Z,7.07
2018-12-08T05:44:30.156Z,4.67
2018-12-08T05:46:58.394Z,4.43
2018-12-08T05:49:26.608Z,5.93
2018-12-08T05:51:54.848Z,4.23
2018-12-08T05:54:23.063Z,5.83
2018-12-08T05:56:51.260Z,3.43
2018-12-08T05:59:19.509Z,2.70
2018-12-08T06:01:47.775Z,3.40
2018-12-08T06:04:16.038Z,2.83
2018-12-08T06:06:44.318Z,3.60
2018-12-08T06:09:12.599Z,4.60
2018-12-08T06:11:40.839Z,4.03
2018-12-08T06:14:09.103Z,3.00
2018-12-08T06:16:37.333Z,4.30
2018-12-08T06:19:05.589Z,7.17
2018-12-08T06:21:36.925Z,8.50
2018-12-08T06:24:05.370Z,4.50
2018-12-08T06:26:38.628Z,6.97
2018-12-08T06:29:06.884Z,3.07
2018-12-08T06:31:35.151Z,4.17
2018-12-08T06:34:03.416Z,3.03
2018-12-08T06:36:31.648Z,3.57
2018-12-08T06:38:59.991Z,6.50
2018-12-08T06:41:28.226Z,5.47
2018-12-08T06:43:56.491Z,3.40
2018-12-08T06:46:24.762Z,3.73
2018-12-08T06:48:52.956Z,2.60
2018-12-08T06:51:21.184Z,3.00
2018-12-08T06:53:49.457Z,4.43
2018-12-08T06:56:17.779Z,3.10
2018-12-08T06:58:46.007Z,1.80
2018-12-08T07:01:14.314Z,1.27
2018-12-08T07:03:42.545Z,2.27
2018-12-08T07:06:10.824Z,1.77
2018-12-08T07:08:39.307Z,3.20
2018-12-08T07:11:07.643Z,1.23
2018-12-08T07:13:35.966Z,3.87
2018-12-08T07:16:04.434Z,2.83
2018-12-08T07:18:32.933Z,4.57
2018-12-08T07:21:01.691Z,4.17
2018-12-08T07:23:30.874Z,3.53
2018-12-08T07:25:59.376Z,2.13
2018-12-08T07:28:27.985Z,4.33
2018-12-08T07:30:56.338Z,2.00
2018-12-08T07:33:24.847Z,2.37
2018-12-08T07:35:53.265Z,7.73
2018-12-08T07:38:21.619Z,5.90
2018-12-08T07:40:50.061Z,4.80
2018-12-08T07:43:18.340Z,5.17
2018-12-08T07:45:47.052Z,7.50
2018-12-08T07:48:15.755Z,10.40
2018-12-08T07:50:44.214Z,14.03
2018-12-08T07:53:12.872Z,5.37
2018-12-08T07:55:41.432Z,11.00
2018-12-08T07:58:09.975Z,8.43
2018-12-08T08:00:38.405Z,2.93
2018-12-08T08:03:07.066Z,8.80
2018-12-08T08:05:35.442Z,3.90
2018-12-08T08:08:03.894Z,4.03
2018-12-08T08:10:32.465Z,5.60
2018-12-08T08:13:00.888Z,5.07
2018-12-08T08:15:29.482Z,4.67
2018-12-08T08:17:57.844Z,4.03
2018-12-08T08:20:26.384Z,3.23
2018-12-08T08:22:55.441Z,3.03
2018-12-08T08:25:24.466Z,6.80
2018-12-08T08:27:53.350Z,5.93
2018-12-08T08:30:23.533Z,6.73
2018-12-08T08:32:52.394Z,6.30
2018-12-08T08:35:21.139Z,6.83
2018-12-08T08:37:50.330Z,7.97
2018-12-08T08:40:19.226Z,2.67
2018-12-08T08:42:47.773Z,6.57
2018-12-08T08:45:16.393Z,5.53
2018-12-08T08:47:44.795Z,6.67
2018-12-08T08:50:13.501Z,4.27
2018-12-08T08:52:42.270Z,3.73
2018-12-08T08:55:10.850Z,3.87
2018-12-08T08:57:39.447Z,6.43
2018-12-08T09:00:09.721Z,6.47
2018-12-08T09:02:38.183Z,5.30
2018-12-08T09:05:07.547Z,8.87
2018-12-08T09:07:36.067Z,4.23
2018-12-08T09:10:07.639Z,5.53
2018-12-08T09:12:36.225Z,8.70
2018-12-08T09:15:05.975Z,3.77
2018-12-08T09:17:34.770Z,3.13
2018-12-08T09:20:03.593Z,4.00
2018-12-08T09:22:32.385Z,3.93
2018-12-08T09:25:01.038Z,4.37
2018-12-08T09:27:29.282Z,3.73
2018-12-08T09:29:57.547Z,3.43
2018-12-08T09:32:25.860Z,2.93
2018-12-08T09:34:54.116Z,4.77
2018-12-08T09:37:22.885Z,3.57
2018-12-08T09:39:51.196Z,5.53
2018-12-08T09:58:03.431Z,5.20
2018-12-08T10:00:31.685Z,7.33
2018-12-08T10:03:05.854Z,10.73
2018-12-08T10:05:34.113Z,7.50
2018-12-08T10:08:02.489Z,5.93
2018-12-08T10:10:30.830Z,5.60
2018-12-08T10:12:59.270Z,7.17
2018-12-08T10:15:27.621Z,7.87
2018-12-08T10:17:55.882Z,5.80
2018-12-08T10:20:24.206Z,10.53
2018-12-08T10:22:52.473Z,8.77
2018-12-08T10:25:20.850Z,10.23
2018-12-08T10:27:49.137Z,8.00
2018-12-08T10:30:17.355Z,10.20
2018-12-08T10:32:45.639Z,12.90
2018-12-08T10:35:13.960Z,12.20
2018-12-08T10:37:42.332Z,9.63
2018-12-08T10:40:11.283Z,12.67
2018-12-08T10:42:39.749Z,10.87
2018-12-08T10:45:08.978Z,9.30
2018-12-08T10:47:37.505Z,11.73
2018-12-08T10:50:08.977Z,14.53
2018-12-08T10:52:37.404Z,13.93
2018-12-08T10:55:06.496Z,8.77
2018-12-08T10:57:34.864Z,11.33
2018-12-08T11:00:03.264Z,11.23
2018-12-08T11:02:34.819Z,11.10
2018-12-08T11:05:03.230Z,15.77
2018-12-08T11:07:31.542Z,8.10
2018-12-08T11:09:59.797Z,10.40
2018-12-08T11:12:28.261Z,14.90
2018-12-08T11:15:00.674Z,14.17
2018-12-08T11:17:26.824Z,14.80
2018-12-08T11:19:56.102Z,12.40
2018-12-08T11:22:24.471Z,11.33
2018-12-08T11:24:52.877Z,8.70
2018-12-08T11:27:21.190Z,12.60
2018-12-08T11:29:49.471Z,8.73
2018-12-08T11:32:17.744Z,8.47
2018-12-08T11:34:46.024Z,13.73
2018-12-08T11:37:14.291Z,11.60
2018-12-08T11:39:42.523Z,11.27
2018-12-08T11:42:10.817Z,9.33
2018-12-08T11:44:39.579Z,6.90
2018-12-08T11:47:07.820Z,14.97
2018-12-08T11:49:49.093Z,16.73
2018-12-08T11:52:17.426Z,11.97
2018-12-08T11:54:45.660Z,10.10
2018-12-08T11:57:14.048Z,15.53
2018-12-08T11:59:42.327Z,8.80
2018-12-08T12:02:16.505Z,11.37
2018-12-08T12:04:40.810Z,9.33
2018-12-08T12:07:09.092Z,10.30
2018-12-08T12:09:37.418Z,12.30
2018-12-08T12:12:05.754Z,10.63
2018-12-08T12:14:43.693Z,9.40
2018-12-08T12:17:11.977Z,12.70
2018-12-08T12:19:40.226Z,9.50
2018-12-08T12:22:09.379Z,11.63
2018-12-08T12:24:37.617Z,7.87
2018-12-08T12:27:05.974Z,8.20
2018-12-08T12:29:34.235Z,6.73
2018-12-08T12:32:02.497Z,7.43
2018-12-08T12:34:30.898Z,7.20
2018-12-08T12:36:59.265Z,8.33
2018-12-08T12:39:27.540Z,8.30
2018-12-08T12:41:55.743Z,10.07
2018-12-08T12:44:23.987Z,13.60
2018-12-08T12:46:52.242Z,11.17
2018-12-08T12:49:20.532Z,13.63
2018-12-08T12:51:49.023Z,16.00
2018-12-08T12:54:17.830Z,13.30
2018-12-08T12:56:46.238Z,10.63
2018-12-08T12:59:14.619Z,14.37
2018-12-08T13:01:42.879Z,11.47
2018-12-08T13:04:11.186Z,9.50
2018-12-08T13:06:39.421Z,16.57
2018-12-08T13:09:07.695Z,9.83
2018-12-08T13:11:36.054Z,9.13
2018-12-08T13:14:04.619Z,7.90
2018-12-08T13:16:32.951Z,8.70
2018-12-08T13:19:01.251Z,10.00
2018-12-08T13:21:29.508Z,9.57
2018-12-08T13:23:57.764Z,10.67
2018-12-08T13:26:26.056Z,13.07
2018-12-08T13:28:54.309Z,12.57
2018-12-08T13:31:29.227Z,10.00
2018-12-08T13:33:57.494Z,24.50
2018-12-08T13:36:25.738Z,11.40
2018-12-08T13:38:54.021Z,11.03
2018-12-08T13:41:22.323Z,9.23
2018-12-08T13:43:54.752Z,6.80
2018-12-08T13:46:23.243Z,13.90
2018-12-08T13:48:51.581Z,10.30
2018-12-08T13:51:20.127Z,10.97
2018-12-08T13:53:48.387Z,9.40
2018-12-08T13:56:16.611Z,6.73
2018-12-08T13:58:44.896Z,10.03
2018-12-08T14:01:13.195Z,12.87
2018-12-08T14:03:41.512Z,15.00
2018-12-08T14:06:09.794Z,15.80
2018-12-08T14:08:38.164Z,8.73
2018-12-08T14:11:06.641Z,10.70
2018-12-08T14:13:34.972Z,11.63
2018-12-08T14:16:03.583Z,13.50
2018-12-08T14:18:32.324Z,13.33
2018-12-08T14:21:03.069Z,14.00
2018-12-08T14:23:31.535Z,10.53
2018-12-08T14:25:59.844Z,14.37
2018-12-08T14:28:28.490Z,10.87
2018-12-08T14:30:56.849Z,15.47
2018-12-08T14:33:25.376Z,13.63
2018-12-08T14:35:54.495Z,10.57
2018-12-08T14:38:22.815Z,10.70
2018-12-08T14:40:51.171Z,14.43
2018-12-08T14:43:19.687Z,10.60
2018-12-08T14:45:48.127Z,11.60
2018-12-08T14:48:16.630Z,12.10
2018-12-08T14:50:45.329Z,12.10
2018-12-08T14:53:14.096Z,12.57
2018-12-08T14:55:49.783Z,13.93
2018-12-08T14:58:18.284Z,13.07
2018-12-08T15:00:47.210Z,14.40
2018-12-08T15:03:15.579Z,13.57
2018-12-08T15:05:44.067Z,16.43
2018-12-08T15:08:12.348Z,19.20
2018-12-08T15:10:40.670Z,14.90
2018-12-08T15:13:08.990Z,15.33
2018-12-08T15:15:37.293Z,14.73
2018-12-08T15:18:05.571Z,12.50
2018-12-08T15:20:33.841Z,12.80
2018-12-08T15:23:04.333Z,11.43
2018-12-08T15:25:32.660Z,20.93
2018-12-08T15:28:01.020Z,14.67
2018-12-08T15:30:29.486Z,14.67
2018-12-08T15:32:57.906Z,17.90
2018-12-08T15:35:32.730Z,18.43
2018-12-08T15:38:01.228Z,25.30
2018-12-08T15:40:29.504Z,11.90
2018-12-08T15:42:57.992Z,16.67
2018-12-08T15:45:26.999Z,20.30
2018-12-08T15:47:55.493Z,18.03
2018-12-08T15:50:23.874Z,19.53
2018-12-08T15:52:52.214Z,15.23
2018-12-08T15:55:20.580Z,21.70
2018-12-08T15:57:48.997Z,17.30
2018-12-08T16:00:17.409Z,12.60
2018-12-08T16:02:45.673Z,21.17
2018-12-08T16:05:14.229Z,12.37
2018-12-08T16:07:42.565Z,13.20
2018-12-08T16:12:54.042Z,18.17
2018-12-08T16:15:22.718Z,21.67
2018-12-08T16:17:50.960Z,12.80
2018-12-08T16:20:19.216Z,15.30
2018-12-08T16:22:47.565Z,15.47
2018-12-08T16:25:15.921Z,14.27
2018-12-08T16:27:44.322Z,15.97
2018-12-08T16:30:12.789Z,18.03
2018-12-08T16:32:41.242Z,15.37
2018-12-08T16:35:11.008Z,15.70
2018-12-08T16:37:39.624Z,14.83
2018-12-08T16:40:08.351Z,12.37
2018-12-08T16:42:36.789Z,13.07
2018-12-08T16:45:06.989Z,15.93
2018-12-08T16:47:35.314Z,13.53
2018-12-08T16:50:04.187Z,17.77
2018-12-08T16:52:32.493Z,13.87
2018-12-08T16:55:00.945Z,15.53
2018-12-08T16:57:29.324Z,16.13
2018-12-08T16:59:57.778Z,11.57
2018-12-08T17:02:26.088Z,11.83
2018-12-08T17:04:54.365Z,12.50
2018-12-08T17:07:22.756Z,14.83
2018-12-08T17:09:51.274Z,7.63
2018-12-08T17:12:19.535Z,8.20
2018-12-08T17:14:47.882Z,8.63
2018-12-08T17:17:16.224Z,9.47
2018-12-08T17:19:44.549Z,8.47
2018-12-08T17:22:13.012Z,8.43
2018-12-08T17:24:41.432Z,6.37
2018-12-08T17:27:09.791Z,6.93
2018-12-08T17:29:38.091Z,9.20
2018-12-08T17:32:06.365Z,9.60
2018-12-08T17:34:34.765Z,9.97
2018-12-08T17:37:03.119Z,8.97
2018-12-08T17:39:31.532Z,10.20
2018-12-08T17:41:59.870Z,10.47
2018-12-08T17:44:28.245Z,7.40
2018-12-08T17:46:56.545Z,3.90
2018-12-08T17:49:25.098Z,8.57
2018-12-08T17:51:53.342Z,5.90
2018-12-08T17:54:21.625Z,3.90
2018-12-08T17:56:49.973Z,5.17
2018-12-08T17:59:18.202Z,7.97
2018-12-08T18:01:46.511Z,3.57
2018-12-08T18:04:14.916Z,4.10
2018-12-08T18:06:43.266Z,5.73
2018-12-08T18:09:11.679Z,4.83
2018-12-08T18:11:40.052Z,5.13
2018-12-08T18:14:08.299Z,3.63
2018-12-08T18:16:36.580Z,6.37
2018-12-08T18:19:04.927Z,3.33
2018-12-08T18:21:33.231Z,6.07
2018-12-08T18:24:01.598Z,8.50
2018-12-08T18:26:29.907Z,7.13
2018-12-08T18:28:58.163Z,5.03
2018-12-08T18:31:26.397Z,13.80
2018-12-08T18:33:54.684Z,19.00
2018-12-08T18:36:22.996Z,12.13
2018-12-08T18:38:51.243Z,20.47
2018-12-08T18:41:19.698Z,6.30
2018-12-08T18:43:48.027Z,4.53
2018-12-08T18:46:16.474Z,4.10
2018-12-08T18:48:44.719Z,8.97
2018-12-08T18:51:12.974Z,4.63
2018-12-08T18:53:41.210Z,7.57
2018-12-08T18:56:09.466Z,3.37
2018-12-08T18:58:37.748Z,8.23
2018-12-08T19:01:06.077Z,1.90
2018-12-08T19:03:34.336Z,4.47
2018-12-08T19:06:09.094Z,4.47
2018-12-08T19:08:37.383Z,1.30
2018-12-08T19:11:05.658Z,4.13
2018-12-08T19:13:34.041Z,5.50
2018-12-08T19:16:02.361Z,4.60
2018-12-08T19:18:30.703Z,6.93
2018-12-08T19:20:59.071Z,5.27
2018-12-08T19:23:27.336Z,4.67
2018-12-08T19:25:55.659Z,3.47
2018-12-08T19:28:23.885Z,3.87
2018-12-08T19:30:52.235Z,3.07
2018-12-08T19:33:20.570Z,6.23
2018-12-08T19:35:48.795Z,3.17
2018-12-08T19:38:17.576Z,5.83
2018-12-08T19:40:45.815Z,2.47
2018-12-08T19:43:14.168Z,4.30
2018-12-08T19:45:42.377Z,6.83
2018-12-08T19:48:10.612Z,7.43
2018-12-08T19:50:38.869Z,4.27
2018-12-08T19:53:07.103Z,1.57
2018-12-08T19:55:35.377Z,3.13
2018-12-08T19:58:03.632Z,7.00
2018-12-08T20:00:31.933Z,2.67
2018-12-08T20:03:00.292Z,2.67
2018-12-08T20:05:28.538Z,3.03
2018-12-08T20:07:56.816Z,2.63
2018-12-08T20:10:25.113Z,5.53
2018-12-08T20:12:53.447Z,2.43
2018-12-08T20:15:21.773Z,1.97
2018-12-08T20:17:50.025Z,7.63
2018-12-08T20:20:18.396Z,4.70
2018-12-08T20:22:46.660Z,4.73
2018-12-08T20:25:14.889Z,7.27
2018-12-08T20:27:43.192Z,3.37
2018-12-08T20:30:11.670Z,3.40
2018-12-08T20:32:40.050Z,4.97
2018-12-08T20:35:08.338Z,6.23
2018-12-08T20:37:36.599Z,5.27
2018-12-08T20:40:05.495Z,3.93
2018-12-08T20:42:33.761Z,5.00
2018-12-08T20:45:02.015Z,3.73
2018-12-08T20:47:30.316Z,2.63
2018-12-08T20:49:58.662Z,3.50
2018-12-08T20:52:26.930Z,5.27
2018-12-08T20:54:55.558Z,6.03
2018-12-08T20:57:24.215Z,4.67
2018-12-08T20:59:52.506Z,3.67
2018-12-08T21:02:20.760Z,2.30
2018-12-08T21:04:50.489Z,2.77
2018-12-08T21:10:08.619Z,1.57
2018-12-08T21:15:22.257Z,3.00
2018-12-08T21:17:51.071Z,5.87
2018-12-08T21:20:20.164Z,4.60
2018-12-08T21:22:50.474Z,2.73
2018-12-08T21:25:18.805Z,2.67
2018-12-08T21:27:47.066Z,3.27
2018-12-08T21:30:15.330Z,10.13
2018-12-08T21:32:43.685Z,3.20
2018-12-08T21:35:11.938Z,5.43
2018-12-08T21:37:40.221Z,4.23
2018-12-08T21:40:16.165Z,5.87
2018-12-08T21:42:44.476Z,5.13
2018-12-08T21:45:12.890Z,3.60
2018-12-08T21:47:41.199Z,1.50
2018-12-08T21:50:09.661Z,5.40
2018-12-08T21:52:37.977Z,5.07
2018-12-08T21:55:06.428Z,6.53
2018-12-08T21:57:34.972Z,11.47
2018-12-08T22:00:03.324Z,6.83
2018-12-08T22:02:31.654Z,4.03
2018-12-08T22:05:03.619Z,6.50
2018-12-08T22:07:31.905Z,8.73
2018-12-08T22:10:00.140Z,6.73
2018-12-08T22:12:28.465Z,5.20
2018-12-08T22:14:59.017Z,9.97
2018-12-08T22:17:27.886Z,17.67
2018-12-08T22:19:56.294Z,5.23
2018-12-08T22:22:24.598Z,3.97
2018-12-08T22:24:52.904Z,9.30
2018-12-08T22:27:21.364Z,9.97
2018-12-08T22:29:49.741Z,5.47
2018-12-08T22:32:18.202Z,6.90
2018-12-08T22:34:46.472Z,3.50
2018-12-08T22:37:14.840Z,9.40
2018-12-08T22:39:43.068Z,5.50
2018-12-08T22:42:11.477Z,3.33
2018-12-08T22:44:39.830Z,5.87
2018-12-08T22:47:08.135Z,8.30
2018-12-08T22:49:36.413Z,6.27
2018-12-08T22:52:04.802Z,10.07
2018-12-08T22:54:33.030Z,9.33
2018-12-08T22:57:01.300Z,7.17
2018-12-08T22:59:29.602Z,10.53
2018-12-08T23:01:58.054Z,7.63
2018-12-08T23:04:26.286Z,18.87
2018-12-08T23:07:02.050Z,10.30
2018-12-08T23:09:30.415Z,13.80
2018-12-08T23:11:58.785Z,9.03
2018-12-08T23:14:27.173Z,8.90
2018-12-08T23:16:55.515Z,11.93
2018-12-08T23:19:23.878Z,17.33
2018-12-08T23:21:52.131Z,15.27
2018-12-08T23:24:20.425Z,13.87
2018-12-08T23:26:48.709Z,14.37
2018-12-08T23:29:16.965Z,18.27
2018-12-08T23:31:45.249Z,14.13
2018-12-08T23:34:13.600Z,16.13
2018-12-08T23:36:41.968Z,17.60
2018-12-08T23:39:10.412Z,25.03
2018-12-08T23:41:38.806Z,16.30
2018-12-08T23:44:07.160Z,15.13
2018-12-08T23:46:35.444Z,13.73
2018-12-08T23:49:10.919Z,12.07
2018-12-08T23:51:34.195Z,12.63
2018-12-08T23:54:02.470Z,12.43
2018-12-08T23:56:30.752Z,7.80
2018-12-08T23:58:59.027Z,5.60
